Time;durP1;ratioP1;P1;durP2;ratioP2;P2;SDS_P1;SDS_P2;PMS_P1;PMS_P2;Temp;Humidity;BMP_temperature;BMP_pressure;BME280_temperature;BME280_humidity;BME280_pressure;Samples;Min_cycle;Max_cycle;Signal;HPM_P1;HPM_P2
2023/06/25 00:00:52;;;;;;;9.50;8.50;;;;;;;19.26;100.00;101397.63;4844228;29;20290;-85
2023/06/25 00:03:19;;;;;;;10.05;7.68;;;;;;;19.24;100.00;101395.94;4849580;29;20102;-85
2023/06/25 00:05:46;;;;;;;8.52;7.68;;;;;;;19.20;100.00;101397.81;4864862;29;20397;-82
2023/06/25 00:08:13;;;;;;;11.13;8.57;;;;;;;19.17;100.00;101393.47;4844645;29;20517;-84
2023/06/25 00:10:41;;;;;;;10.07;8.85;;;;;;;19.15;100.00;101392.69;4872531;29;20125;-85
2023/06/25 00:13:08;;;;;;;9.57;8.18;;;;;;;19.12;100.00;101394.56;4842678;29;20057;-84
2023/06/25 00:15:37;;;;;;;10.02;9.02;;;;;;;19.10;100.00;101389.31;4854871;29;20046;-84
2023/06/25 00:18:08;;;;;;;9.80;8.82;;;;;;;19.07;100.00;101394.69;4857848;29;20053;-85
2023/06/25 00:20:34;;;;;;;10.93;9.30;;;;;;;19.04;100.00;101396.59;4869550;29;20460;-84
2023/06/25 00:23:02;;;;;;;9.63;8.50;;;;;;;19.01;100.00;101394.91;4848672;29;20041;-83
2023/06/25 00:25:31;;;;;;;11.05;9.63;;;;;;;18.97;100.00;101390.63;4859510;29;20400;-86
2023/06/25 00:27:59;;;;;;;9.45;8.38;;;;;;;18.93;100.00;101387.19;4857398;29;20060;-86
2023/06/25 00:30:26;;;;;;;10.20;8.98;;;;;;;18.91;100.00;101389.03;4859120;29;20060;-86
2023/06/25 00:32:56;;;;;;;8.57;7.72;;;;;;;18.85;100.00;101389.19;4852826;29;20045;-85
2023/06/25 00:35:27;;;;;;;10.63;8.93;;;;;;;18.79;100.00;101382.28;4858382;29;20108;-86
2023/06/25 00:37:57;;;;;;;9.27;7.95;;;;;;;18.76;100.00;101378.88;4862504;29;20041;-86
2023/06/25 00:40:24;;;;;;;9.00;8.20;;;;;;;18.72;100.00;101382.53;4864694;29;20141;-86
2023/06/25 00:42:56;;;;;;;9.45;8.48;;;;;;;18.68;100.00;101387.06;4858961;29;20050;-86
2023/06/25 00:45:24;;;;;;;11.02;8.65;;;;;;;18.63;100.00;101381.91;4861953;29;20064;-86
2023/06/25 00:47:54;;;;;;;8.95;8.10;;;;;;;18.59;100.00;101382.03;4841216;29;20638;-86
2023/06/25 00:50:21;;;;;;;11.93;10.70;;;;;;;18.55;100.00;101372.44;4863982;29;20053;-86
2023/06/25 00:52:50;;;;;;;14.93;11.35;;;;;;;18.52;100.00;101386.66;4860761;29;20083;-87
2023/06/25 00:55:17;;;;;;;12.93;9.02;;;;;;;18.50;100.00;101377.91;4878442;29;20128;-84
2023/06/25 00:57:44;;;;;;;11.75;8.55;;;;;;;18.48;100.00;101385.88;4856665;29;20130;-84
2023/06/25 01:00:14;;;;;;;9.88;8.88;;;;;;;18.45;100.00;101387.78;4860579;29;20048;-84
2023/06/25 01:02:49;;;;;;;9.10;8.20;;;;;;;18.42;100.00;101383.44;4852252;29;20064;-84
2023/06/25 01:05:57;;;;;;;11.07;8.98;;;;;;;18.42;100.00;101387.84;4866080;29;20059;-84
2023/06/25 01:08:28;;;;;;;11.20;8.60;;;;;;;18.35;100.00;101380.13;4842761;29;20056;-85
2023/06/25 01:10:57;;;;;;;8.98;8.15;;;;;;;18.34;100.00;101385.44;4843123;29;20045;-83
2023/06/25 01:13:23;;;;;;;10.35;8.88;;;;;;;18.32;100.00;101384.63;4844347;29;20057;-84
2023/06/25 01:15:50;;;;;;;9.32;8.27;;;;;;;18.26;100.00;101380.34;4842126;29;20045;-85
2023/06/25 01:18:17;;;;;;;10.65;9.25;;;;;;;18.24;100.00;101378.66;4843799;29;20049;-84
2023/06/25 01:20:44;;;;;;;10.57;8.70;;;;;;;18.22;100.00;101380.50;4867089;29;20512;-83
2023/06/25 01:23:11;;;;;;;17.25;9.68;;;;;;;18.18;100.00;101380.59;4864151;29;20049;-83
2023/06/25 01:25:38;;;;;;;8.40;7.63;;;;;;;18.15;100.00;101379.81;4856492;29;20589;-84
2023/06/25 01:28:06;;;;;;;10.50;8.00;;;;;;;18.11;100.00;101376.38;4870838;29;20053;-83
2023/06/25 01:30:32;;;;;;;10.63;8.27;;;;;;;18.08;100.00;101372.94;4843691;29;20149;-84
2023/06/25 01:32:59;;;;;;;8.70;7.82;;;;;;;18.06;100.00;101374.81;4858647;29;20052;-82
2023/06/25 01:35:26;;;;;;;8.75;8.00;;;;;;;18.02;100.00;101369.56;4860925;29;20108;-83
2023/06/25 01:37:52;;;;;;;10.18;8.05;;;;;;;18.00;100.00;101362.56;4844270;29;20147;-82
2023/06/25 01:40:19;;;;;;;8.27;7.45;;;;;;;17.97;100.00;101360.88;4841764;29;20057;-84
2023/06/25 01:42:46;;;;;;;9.50;7.97;;;;;;;17.93;100.00;101367.19;4876729;29;20045;-84
2023/06/25 01:45:12;;;;;;;15.68;8.57;;;;;;;17.91;100.00;101366.31;4844706;29;20065;-84
2023/06/25 01:47:39;;;;;;;9.80;7.97;;;;;;;17.88;100.00;101369.06;4856598;29;20487;-85
2023/06/25 01:50:09;;;;;;;13.18;8.65;;;;;;;17.85;100.00;101355.91;4853195;29;20045;-86
2023/06/25 01:52:36;;;;;;;10.63;7.75;;;;;;;17.83;100.00;101360.38;4847375;29;20047;-85
2023/06/25 01:55:02;;;;;;;8.52;7.28;;;;;;;17.80;100.00;101358.69;4848547;29;20108;-82
2023/06/25 01:57:29;;;;;;;9.15;7.88;;;;;;;17.78;100.00;101352.56;4844557;29;20072;-83
2023/06/25 01:59:55;;;;;;;10.18;8.23;;;;;;;17.77;100.00;101352.59;4861483;29;20044;-85
2023/06/25 02:02:22;;;;;;;13.18;7.88;;;;;;;17.76;100.00;101351.72;4853155;29;20158;-85
2023/06/25 02:04:48;;;;;;;12.32;8.50;;;;;;;17.74;100.00;101353.53;4874076;29;20045;-84
2023/06/25 02:07:15;;;;;;;8.52;7.53;;;;;;;17.73;100.00;101349.19;4875541;29;20139;-83
2023/06/25 02:09:41;;;;;;;9.98;7.53;;;;;;;17.72;100.00;101352.75;4867832;29;20136;-85
2023/06/25 02:12:08;;;;;;;8.45;7.65;;;;;;;17.73;100.00;101343.88;4844686;29;20809;-85
2023/06/25 02:14:35;;;;;;;8.65;7.80;;;;;;;17.72;100.00;101349.19;4851510;29;20177;-83
2023/06/25 02:17:01;;;;;;;8.95;7.53;;;;;;;17.68;100.00;101336.06;4846055;29;20511;-84
2023/06/25 02:19:28;;;;;;;9.38;8.13;;;;;;;17.70;100.00;101341.31;4869210;29;20472;-83
2023/06/25 02:21:54;;;;;;;8.20;7.38;;;;;;;17.69;100.00;101342.22;4860722;29;20049;-84
2023/06/25 02:24:21;;;;;;;8.45;7.43;;;;;;;17.68;100.00;101340.50;4845357;29;20466;-83
2023/06/25 02:26:47;;;;;;;8.05;7.25;;;;;;;17.67;100.00;101336.09;4847880;29;20059;-86
2023/06/25 02:29:14;;;;;;;9.88;7.07;;;;;;;17.64;100.00;101333.56;4873304;29;20141;-84
2023/06/25 02:31:40;;;;;;;9.00;7.53;;;;;;;17.61;100.00;101337.16;4863799;29;20518;-84
2023/06/25 02:34:07;;;;;;;7.72;6.93;;;;;;;17.59;100.00;101330.16;4862951;29;20140;-83
2023/06/25 02:36:33;;;;;;;7.78;7.18;;;;;;;17.57;100.00;101332.81;4850537;29;20041;-84
2023/06/25 02:39:00;;;;;;;7.78;6.97;;;;;;;17.56;100.00;101324.94;4851232;29;20358;-83
2023/06/25 02:41:29;;;;;;;7.30;6.63;;;;;;;17.55;100.00;101325.84;4862852;29;20041;-82
2023/06/25 02:43:56;;;;;;;9.20;7.57;;;;;;;17.53;100.00;101325.88;4867212;29;20041;-85
2023/06/25 02:46:22;;;;;;;7.70;7.03;;;;;;;17.52;100.00;101326.78;4859886;29;20061;-84
2023/06/25 02:48:49;;;;;;;9.00;7.15;;;;;;;17.51;100.00;101336.53;4847193;29;20049;-84
2023/06/25 02:51:15;;;;;;;9.10;8.00;;;;;;;17.50;100.00;101332.13;4838542;29;20440;-84
2023/06/25 02:53:42;;;;;;;7.90;7.05;;;;;;;17.49;100.00;101332.19;4859115;29;20505;-83
2023/06/25 02:56:08;;;;;;;7.50;6.80;;;;;;;17.49;100.00;101333.03;4858865;29;20049;-84
2023/06/25 02:58:35;;;;;;;7.68;6.03;;;;;;;17.47;100.00;101328.69;4850900;29;20059;-82
2023/06/25 03:01:01;;;;;;;7.90;6.68;;;;;;;17.44;100.00;101329.69;4844619;29;20680;-83
2023/06/25 03:03:28;;;;;;;7.82;6.78;;;;;;;17.43;100.00;101327.03;4866617;29;20441;-84
2023/06/25 03:05:55;;;;;;;8.95;7.25;;;;;;;17.42;100.00;101331.47;4862077;29;20663;-84
2023/06/25 03:08:21;;;;;;;6.97;6.32;;;;;;;17.39;100.00;101326.28;4869330;29;20053;-84
2023/06/25 03:10:48;;;;;;;10.90;6.90;;;;;;;17.41;100.00;101324.44;4847110;29;20057;-85
2023/06/25 03:13:14;;;;;;;7.88;6.88;;;;;;;17.39;100.00;101326.28;4863157;29;20100;-84
2023/06/25 03:15:41;;;;;;;9.80;7.35;;;;;;;17.40;100.00;101324.50;4846614;29;20046;-83
2023/06/25 03:18:08;;;;;;;8.43;6.75;;;;;;;17.39;100.00;101322.75;4862042;29;20052;-83
2023/06/25 03:20:34;;;;;;;7.90;7.10;;;;;;;17.38;100.00;101334.22;4844263;29;20057;-83
2023/06/25 03:23:01;;;;;;;6.95;6.03;;;;;;;17.40;100.00;101327.13;4853167;29;20093;-84
2023/06/25 03:25:30;;;;;;;7.47;6.68;;;;;;;17.42;100.00;101327.97;4852543;29;20045;-83
2023/06/25 03:27:57;;;;;;;8.23;7.35;;;;;;;17.43;100.00;101320.00;4862254;29;20557;-84
2023/06/25 03:30:23;;;;;;;8.40;7.13;;;;;;;17.41;100.00;101320.94;4861020;29;20080;-85
2023/06/25 03:32:50;;;;;;;9.77;7.60;;;;;;;17.41;100.00;101319.16;4846081;29;20524;-84
2023/06/25 03:35:17;;;;;;;8.30;7.05;;;;;;;17.40;100.00;101324.50;4859557;29;20060;-85
2023/06/25 03:37:43;;;;;;;11.68;7.07;;;;;;;17.39;100.00;101326.28;4873324;29;20045;-84
2023/06/25 03:40:11;;;;;;;9.25;7.15;;;;;;;17.36;100.00;101329.88;4849347;29;20060;-84
2023/06/25 03:42:38;;;;;;;9.88;7.97;;;;;;;17.33;100.00;101323.78;4861715;29;20386;-84
2023/06/25 03:45:05;;;;;;;9.07;7.13;;;;;;;17.32;100.00;101328.19;4862888;29;20045;-84
2023/06/25 03:47:31;;;;;;;7.80;6.45;;;;;;;17.31;100.00;101321.19;4861084;29;20056;-85
2023/06/25 03:49:58;;;;;;;9.82;7.07;;;;;;;17.31;100.00;101317.66;4843907;29;20056;-85
2023/06/25 03:52:24;;;;;;;7.95;7.15;;;;;;;17.32;100.00;101316.75;4854896;29;20049;-85
2023/06/25 03:54:51;;;;;;;8.90;7.10;;;;;;;17.33;100.00;101318.50;4841266;29;20154;-85
2023/06/25 03:57:18;;;;;;;9.35;7.07;;;;;;;17.38;100.00;101313.06;4853148;29;20130;-85
2023/06/25 03:59:45;;;;;;;9.73;7.10;;;;;;;17.41;100.00;101313.84;4865652;29;20041;-85
2023/06/25 04:02:12;;;;;;;8.43;7.30;;;;;;;17.44;100.00;101313.78;4844504;29;20924;-85
2023/06/25 04:04:38;;;;;;;7.97;7.18;;;;;;;17.46;100.00;101309.31;4850651;29;20060;-85
2023/06/25 04:07:05;;;;;;;7.75;6.95;;;;;;;17.51;100.00;101309.19;4842911;29;20171;-85
2023/06/25 04:09:31;;;;;;;7.60;6.57;;;;;;;17.56;100.00;101311.69;4856862;29;20699;-85
2023/06/25 04:11:58;;;;;;;8.63;6.78;;;;;;;17.61;100.00;101317.75;4858226;29;20119;-85
2023/06/25 04:14:24;;;;;;;8.80;7.20;;;;;;;17.67;100.00;101321.06;4876970;29;20053;-84
2023/06/25 04:16:51;;;;;;;12.00;6.75;;;;;;;17.73;100.00;101311.22;4875358;29;20097;-85
2023/06/25 04:19:17;;;;;;;7.05;6.07;;;;;;;17.78;100.00;101312.84;4859645;29;20071;-85
2023/06/25 04:21:44;;;;;;;8.27;6.03;;;;;;;17.85;100.00;101316.19;4857575;29;20504;-85
2023/06/25 04:24:13;;;;;;;8.63;6.05;;;;;;;17.91;100.00;101310.69;4874366;29;20469;-85
2023/06/25 04:26:39;;;;;;;8.65;6.03;;;;;;;17.96;100.00;101311.47;4859812;29;20041;-84
2023/06/25 04:29:06;;;;;;;8.02;6.13;;;;;;;18.03;100.00;101312.19;4854629;29;20050;-85
2023/06/25 04:31:32;;;;;;;7.80;6.20;;;;;;;18.09;100.00;101317.25;4849283;29;20131;-84
2023/06/25 04:33:58;;;;;;;6.60;5.90;;;;;;;18.14;100.00;101309.19;4844772;29;20072;-84
2023/06/25 04:36:25;;;;;;;5.53;5.03;;;;;;;18.15;100.00;101303.84;4877765;29;20057;-85
2023/06/25 04:38:52;;;;;;;7.68;5.60;;;;;;;18.16;100.00;101308.22;4870587;29;20070;-85
2023/06/25 04:41:18;;;;;;;6.85;6.15;;;;;;;18.21;100.00;101305.44;4858283;29;20054;-86
2023/06/25 04:43:45;;;;;;;5.90;4.97;;;;;;;18.28;99.98;101306.13;4847472;29;20139;-85
2023/06/25 04:46:11;;;;;;;7.18;5.50;;;;;;;18.33;99.44;101297.13;4842410;29;20148;-84
2023/06/25 04:48:47;;;;;;;8.75;5.90;;;;;;;18.40;99.33;101302.22;4853276;29;20175;-87
2023/06/25 04:51:19;;;;;;;7.68;6.30;;;;;;;18.46;98.75;101302.91;4880885;29;20152;-87
2023/06/25 04:53:45;;;;;;;6.38;5.72;;;;;;;18.51;98.19;101298.31;4843989;29;20129;-85
2023/06/25 04:56:12;;;;;;;7.30;5.32;;;;;;;18.57;97.89;101294.59;4852041;29;20551;-86
2023/06/25 04:58:39;;;;;;;6.35;5.75;;;;;;;18.63;97.47;101302.38;4845070;29;20458;-84
2023/06/25 05:01:05;;;;;;;6.95;5.95;;;;;;;18.71;97.08;101301.22;4844960;29;20056;-86
2023/06/25 05:03:32;;;;;;;7.53;5.82;;;;;;;18.78;96.53;101303.63;4858833;29;20124;-85
2023/06/25 05:05:59;;;;;;;7.57;5.78;;;;;;;18.84;96.25;101295.47;4847672;29;20049;-86
2023/06/25 05:08:29;;;;;;;5.53;4.97;;;;;;;18.92;95.65;101295.25;4857185;29;20052;-86
2023/06/25 05:10:55;;;;;;;8.57;5.53;;;;;;;18.96;94.83;101296.88;4847324;29;20092;-85
2023/06/25 05:13:22;;;;;;;7.63;5.57;;;;;;;19.02;94.70;101285.22;4859285;29;20069;-85
2023/06/25 05:15:48;;;;;;;6.05;5.55;;;;;;;19.08;93.98;101292.94;4847396;29;20049;-85
2023/06/25 05:18:15;;;;;;;6.78;5.45;;;;;;;19.15;93.46;101294.47;4851046;29;20530;-86
2023/06/25 05:20:41;;;;;;;5.88;5.28;;;;;;;19.21;93.06;101295.19;4846166;29;20513;-86
2023/06/25 05:23:10;;;;;;;6.30;4.90;;;;;;;19.28;92.83;101294.91;4878263;29;20385;-87
2023/06/25 05:25:37;;;;;;;5.95;5.35;;;;;;;19.36;92.38;101293.75;4860508;29;20109;-86
2023/06/25 05:28:04;;;;;;;5.55;4.93;;;;;;;19.42;92.19;101296.22;4858444;29;20415;-86
2023/06/25 05:30:31;;;;;;;5.10;4.65;;;;;;;19.51;91.87;101302.03;4846642;29;20505;-85
2023/06/25 05:33:01;;;;;;;6.30;4.80;;;;;;;19.59;91.59;101293.78;4857460;29;20378;-86
2023/06/25 05:35:28;;;;;;;5.05;4.65;;;;;;;19.67;90.92;101299.72;4876987;29;20041;-86
2023/06/25 05:37:55;;;;;;;5.22;4.43;;;;;;;19.74;90.70;101299.50;4866187;29;20045;-86
2023/06/25 05:40:22;;;;;;;5.10;4.63;;;;;;;19.80;90.39;101288.63;4848138;29;20056;-85
2023/06/25 05:42:48;;;;;;;7.10;5.22;;;;;;;19.85;90.04;101289.34;4852833;29;20041;-86
2023/06/25 05:45:15;;;;;;;5.57;4.05;;;;;;;19.94;89.75;101296.13;4849223;29;20101;-84
2023/06/25 05:47:42;;;;;;;8.43;5.07;;;;;;;20.03;89.25;101292.25;4865318;29;20483;-86
2023/06/25 05:50:09;;;;;;;6.50;5.82;;;;;;;20.09;88.70;101295.53;4854658;29;20064;-86
2023/06/25 05:52:35;;;;;;;5.03;4.63;;;;;;;20.15;88.37;101284.66;4847824;29;20048;-85
2023/06/25 05:55:02;;;;;;;4.90;4.50;;;;;;;20.24;88.15;101291.38;4847943;29;20180;-86
2023/06/25 05:57:28;;;;;;;6.35;4.13;;;;;;;20.32;87.71;101286.66;4847283;29;20136;-85
2023/06/25 05:59:55;;;;;;;5.80;4.97;;;;;;;20.40;86.93;101283.69;4861316;29;20716;-85
2023/06/25 06:02:21;;;;;;;5.53;4.68;;;;;;;20.47;86.61;101282.50;4865083;29;20105;-85
2023/06/25 06:04:48;;;;;;;5.38;4.32;;;;;;;20.54;85.87;101287.59;4853846;29;20385;-86
2023/06/25 06:07:15;;;;;;;5.80;4.80;;;;;;;20.61;85.80;101286.38;4877135;29;20045;-85
2023/06/25 06:09:41;;;;;;;5.43;4.93;;;;;;;20.67;85.43;101284.34;4849081;29;20105;-85
2023/06/25 06:12:09;;;;;;;5.90;4.72;;;;;;;20.73;85.15;101295.69;4859934;29;20082;-86
2023/06/25 06:14:37;;;;;;;5.55;5.03;;;;;;;20.80;84.84;101295.38;4851368;29;20045;-85
2023/06/25 06:17:05;;;;;;;4.85;4.45;;;;;;;20.90;84.53;101293.22;4860916;29;20057;-86
2023/06/25 06:19:32;;;;;;;6.68;4.15;;;;;;;21.01;84.33;101287.41;4847623;29;20095;-85
2023/06/25 06:22:00;;;;;;;6.03;4.32;;;;;;;21.08;84.04;101294.22;4860403;29;20084;-86
2023/06/25 06:24:28;;;;;;;4.75;4.13;;;;;;;21.18;83.73;101292.00;4862406;29;20057;-86
2023/06/25 06:26:54;;;;;;;6.88;5.00;;;;;;;21.27;83.52;101285.44;4866025;29;20501;-85
2023/06/25 06:29:21;;;;;;;4.43;4.05;;;;;;;21.35;83.29;101283.28;4848278;29;20148;-85
2023/06/25 06:31:47;;;;;;;4.82;4.43;;;;;;;21.43;82.78;101291.81;4878185;29;20049;-86
2023/06/25 06:34:14;;;;;;;4.00;3.72;;;;;;;21.50;82.03;101287.09;4873868;29;20071;-86
2023/06/25 06:36:41;;;;;;;6.00;4.45;;;;;;;21.56;81.94;101293.97;4877803;29;20071;-86
2023/06/25 06:39:07;;;;;;;5.20;4.28;;;;;;;21.63;81.60;101284.78;4847633;29;20057;-85
2023/06/25 06:41:34;;;;;;;4.85;4.00;;;;;;;21.69;81.24;101286.28;4863546;29;20059;-86
2023/06/25 06:44:18;;;;;;;4.53;4.13;;;;;;;21.81;80.00;101281.25;4874746;29;20060;-86
2023/06/25 06:46:46;;;;;;;4.68;4.10;;;;;;;21.86;80.45;101285.50;4852560;29;20057;-86
2023/06/25 06:49:13;;;;;;;5.15;4.57;;;;;;;21.91;79.92;101287.00;4864865;29;20044;-87
2023/06/25 06:51:41;;;;;;;4.63;4.28;;;;;;;22.00;78.99;101284.88;4863624;29;20109;-87
2023/06/25 06:54:07;;;;;;;4.53;3.83;;;;;;;22.12;79.09;101282.50;4872900;29;20790;-86
2023/06/25 06:56:37;;;;;;;3.83;3.53;;;;;;;22.18;78.47;101284.00;4850931;29;20057;-86
2023/06/25 06:59:03;;;;;;;4.75;4.38;;;;;;;22.27;78.08;101275.53;4845985;29;20045;-87
2023/06/25 07:01:30;;;;;;;4.78;3.88;;;;;;;22.38;77.83;101280.38;4849762;29;20056;-87
2023/06/25 07:03:57;;;;;;;5.57;4.10;;;;;;;22.46;75.68;101283.56;4868648;29;20078;-86
2023/06/25 07:06:24;;;;;;;4.43;4.13;;;;;;;22.48;76.39;101279.97;4851314;29;20109;-86
2023/06/25 07:08:51;;;;;;;5.65;3.95;;;;;;;22.60;77.13;101287.34;4849335;29;20088;-85
2023/06/25 07:11:18;;;;;;;4.32;3.90;;;;;;;22.68;75.69;101286.97;4845526;29;20064;-87
2023/06/25 07:13:46;;;;;;;5.13;4.57;;;;;;;22.77;75.88;101290.03;4845579;29;20514;-86
2023/06/25 07:16:13;;;;;;;5.03;4.53;;;;;;;22.85;76.18;101278.97;4866053;29;20061;-85
2023/06/25 07:18:40;;;;;;;5.28;4.05;;;;;;;23.00;76.38;101284.44;4848083;29;20400;-86
2023/06/25 07:21:07;;;;;;;4.20;3.78;;;;;;;23.10;76.11;101289.25;4850351;29;20072;-86
2023/06/25 07:23:36;;;;;;;4.10;3.70;;;;;;;23.21;75.95;101283.38;4852349;29;20048;-87
2023/06/25 07:26:06;;;;;;;5.05;3.92;;;;;;;23.46;75.38;101279.44;4844544;29;20065;-87
2023/06/25 07:28:32;;;;;;;3.85;3.55;;;;;;;23.85;73.57;101286.22;4844246;29;20153;-87
2023/06/25 07:30:59;;;;;;;4.40;4.10;;;;;;;24.35;71.75;101279.00;4873829;29;20056;-87
2023/06/25 07:33:25;;;;;;;4.95;3.17;;;;;;;24.96;70.22;101276.41;4849739;29;20104;-87
2023/06/25 07:35:52;;;;;;;4.68;3.90;;;;;;;25.50;67.21;101275.88;4849279;29;20049;-87
2023/06/25 07:38:19;;;;;;;4.40;4.00;;;;;;;26.04;65.03;101271.63;4866772;29;20052;-86
2023/06/25 07:40:45;;;;;;;5.47;3.70;;;;;;;26.47;60.42;101268.81;4850100;29;20056;-87
2023/06/25 07:43:12;;;;;;;4.22;4.00;;;;;;;26.99;61.03;101271.69;4850962;29;20045;-89
2023/06/25 07:45:39;;;;;;;4.43;4.03;;;;;;;27.68;58.44;101260.63;4861035;29;20037;-87
2023/06/25 07:48:06;;;;;;;3.90;3.67;;;;;;;28.22;54.53;101267.47;4848031;29;20140;-86
2023/06/25 07:50:33;;;;;;;4.05;3.75;;;;;;;28.66;52.68;101266.00;4864537;29;20044;-89
2023/06/25 07:53:00;;;;;;;4.30;3.80;;;;;;;29.09;50.63;101264.53;4844963;29;20445;-86
2023/06/25 07:55:28;;;;;;;4.20;3.90;;;;;;;29.32;48.27;101261.88;4871172;29;20049;-88
2023/06/25 07:58:01;;;;;;;4.07;3.67;;;;;;;29.41;47.44;101265.69;4855385;29;20045;-89
2023/06/25 08:00:28;;;;;;;3.45;3.25;;;;;;;29.32;46.84;101262.75;4848876;29;20113;-89
2023/06/25 08:02:55;;;;;;;6.68;3.58;;;;;;;29.97;44.47;101259.44;4846671;29;20048;-88
2023/06/25 08:05:23;;;;;;;3.40;3.20;;;;;;;30.27;44.63;101258.75;4876743;29;20060;-88
2023/06/25 08:07:51;;;;;;;3.40;3.20;;;;;;;30.73;43.86;101261.28;4844319;29;20056;-87
2023/06/25 08:10:21;;;;;;;2.85;2.75;;;;;;;30.61;42.35;101264.06;4858129;29;20057;-86
2023/06/25 08:12:47;;;;;;;4.38;3.70;;;;;;;30.93;42.20;101260.44;4861917;29;20303;-86
2023/06/25 08:15:14;;;;;;;3.10;2.95;;;;;;;31.60;41.39;101263.69;4851272;29;20386;-87
2023/06/25 08:17:41;;;;;;;4.05;3.75;;;;;;;32.06;40.18;101264.13;4863122;29;20164;-88
2023/06/25 08:20:08;;;;;;;3.42;3.22;;;;;;;32.10;40.24;101264.69;4858007;29;20049;-88
2023/06/25 08:22:35;;;;;;;4.05;3.67;;;;;;;32.77;38.72;101259.50;4865116;29;20056;-86
2023/06/25 08:25:08;;;;;;;3.67;3.38;;;;;;;32.71;36.84;101260.03;4849573;29;20049;-87
2023/06/25 08:27:34;;;;;;;;;;;;;;;32.66;35.48;101257.75;4861866;29;20038;-88
2023/06/25 08:30:00;;;;;;;4.15;2.70;;;;;;;33.03;36.61;101257.00;4833742;29;19924;-86
2023/06/25 08:32:27;;;;;;;3.67;3.25;;;;;;;33.71;35.59;101261.34;4840522;29;20105;-88
2023/06/25 08:34:54;;;;;;;6.13;5.63;;;;;;;34.13;33.56;101262.69;4850031;29;20069;-88
2023/06/25 08:37:20;;;;;;;3.60;3.40;;;;;;;33.71;33.71;101258.63;4843031;29;20052;-88
2023/06/25 08:39:47;;;;;;;4.18;3.42;;;;;;;33.75;32.28;101257.31;4851437;29;20711;-88
2023/06/25 08:42:13;;;;;;;3.60;2.97;;;;;;;33.79;33.68;101255.16;4855919;29;20053;-87
2023/06/25 08:44:41;;;;;;;4.07;3.72;;;;;;;34.32;32.91;101250.88;4871016;29;20096;-87
2023/06/25 08:47:10;;;;;;;3.35;3.15;;;;;;;34.87;31.43;101249.81;4846375;29;20056;-88
2023/06/25 08:49:44;;;;;;;3.35;3.10;;;;;;;35.27;31.29;101247.50;4847196;29;20048;-88
2023/06/25 08:52:12;;;;;;;3.60;3.30;;;;;;;35.55;30.86;101237.31;4855147;29;20438;-87
2023/06/25 08:54:42;;;;;;;3.35;3.08;;;;;;;35.88;29.67;101236.56;4861480;29;20049;-88
2023/06/25 08:57:09;;;;;;;3.40;3.20;;;;;;;36.43;29.75;101229.72;4849219;29;20053;-88
2023/06/25 08:59:35;;;;;;;3.40;3.20;;;;;;;36.70;29.54;101230.34;4866645;29;20041;-88
2023/06/25 09:02:02;;;;;;;5.95;3.60;;;;;;;36.85;28.66;101234.13;4865833;29;20076;-86
2023/06/25 09:04:28;;;;;;;3.20;3.00;;;;;;;36.74;28.97;101231.72;4849466;29;20044;-88
2023/06/25 09:07:05;;;;;;;3.92;3.60;;;;;;;36.58;28.47;101221.69;4883259;29;20258;-87
2023/06/25 09:09:32;;;;;;;3.70;3.40;;;;;;;36.66;28.67;101229.88;4868039;29;20045;-88
2023/06/25 09:11:58;;;;;;;3.72;3.53;;;;;;;36.28;28.28;101225.91;4870060;29;20056;-88
2023/06/25 09:14:25;;;;;;;3.30;3.10;;;;;;;37.00;27.95;101226.09;4848918;29;20046;-87
2023/06/25 09:16:51;;;;;;;3.50;3.20;;;;;;;37.21;27.45;101227.38;4859693;29;20049;-87
2023/06/25 09:19:19;;;;;;;3.42;3.22;;;;;;;37.21;27.33;101227.38;4844620;29;20053;-86
2023/06/25 09:21:46;;;;;;;2.80;2.70;;;;;;;37.65;27.43;101223.28;4846159;29;20539;-87
2023/06/25 09:24:15;;;;;;;4.45;3.85;;;;;;;37.60;27.36;101223.84;4860892;29;20172;-87
2023/06/25 09:26:54;;;;;;;3.17;3.00;;;;;;;37.68;27.31;101217.47;4848937;29;20049;-88
2023/06/25 09:29:22;;;;;;;2.88;2.78;;;;;;;37.97;28.02;101214.09;4844341;29;20048;-89
2023/06/25 09:31:50;;;;;;;2.92;2.83;;;;;;;38.58;27.15;101213.28;4851794;29;20048;-88
2023/06/25 09:34:19;;;;;;;3.15;3.05;;;;;;;38.92;26.42;101216.56;4874666;29;20050;-89
2023/06/25 09:36:46;;;;;;;3.40;3.08;;;;;;;38.77;26.21;101211.09;4845253;29;20086;-89
2023/06/25 09:39:15;;;;;;;3.90;3.70;;;;;;;38.71;26.38;101201.72;4843715;29;20057;-88
2023/06/25 09:41:45;;;;;;;4.20;3.95;;;;;;;38.02;25.63;101202.63;4862960;29;20045;-89
2023/06/25 09:44:12;;;;;;;4.20;3.80;;;;;;;37.74;26.35;101200.34;4854417;29;20088;-87
2023/06/25 09:46:41;;;;;;;3.90;3.50;;;;;;;38.34;25.32;101200.69;4850054;29;20069;-86
2023/06/25 09:49:12;;;;;;;3.50;3.20;;;;;;;38.91;24.87;101199.28;4854319;29;20401;-87
2023/06/25 09:51:59;;;;;;;3.50;3.30;;;;;;;38.86;25.13;101197.09;4847539;29;20052;-87
2023/06/25 09:54:26;;;;;;;3.25;3.03;;;;;;;39.41;25.14;101195.97;4846730;29;20053;-87
2023/06/25 09:56:54;;;;;;;4.15;3.85;;;;;;;40.21;24.18;101207.88;4846123;29;20460;-86
2023/06/25 09:59:22;;;;;;;3.17;2.90;;;;;;;40.57;23.04;101200.59;4877194;29;20118;-88
2023/06/25 10:01:48;;;;;;;3.15;3.05;;;;;;;40.17;23.07;101198.34;4847657;29;20044;-86
2023/06/25 10:04:15;;;;;;;3.33;3.05;;;;;;;40.98;22.29;101200.69;4866252;29;20052;-86
2023/06/25 10:06:42;;;;;;;3.45;3.25;;;;;;;40.10;22.41;101197.44;4859595;29;20580;-86
2023/06/25 10:09:09;;;;;;;3.25;3.15;;;;;;;40.12;23.41;101192.59;4842722;29;20106;-88
2023/06/25 10:11:36;;;;;;;3.35;3.15;;;;;;;40.88;22.57;101189.19;4853977;29;20076;-87
2023/06/25 10:14:05;;;;;;;3.47;3.28;;;;;;;41.07;21.63;101186.78;4866355;29;20295;-87
2023/06/25 10:16:34;;;;;;;3.45;3.25;;;;;;;40.30;22.57;101182.00;4861968;29;20049;-86
2023/06/25 10:19:00;;;;;;;3.35;3.25;;;;;;;40.81;22.09;101180.09;4841383;29;20048;-88
2023/06/25 10:21:28;;;;;;;3.28;3.17;;;;;;;41.59;21.12;101179.84;4843411;29;20065;-87
2023/06/25 10:24:01;;;;;;;3.50;3.05;;;;;;;41.37;20.39;101181.00;4868483;29;20041;-87
2023/06/25 10:26:33;;;;;;;4.00;3.70;;;;;;;41.16;20.93;101174.56;4850977;29;20052;-87
2023/06/25 10:29:08;;;;;;;3.40;3.20;;;;;;;41.21;21.04;101173.97;4848209;29;20072;-87
2023/06/25 10:31:41;;;;;;;3.22;3.13;;;;;;;41.76;20.34;101171.19;4864227;29;20037;-86
2023/06/25 10:34:11;;;;;;;3.25;3.15;;;;;;;42.27;20.49;101170.69;4849372;29;20085;-87
2023/06/25 10:36:50;;;;;;;3.55;3.42;;;;;;;42.21;19.42;101170.66;4853094;29;20368;-89
2023/06/25 10:39:17;;;;;;;3.30;3.17;;;;;;;41.97;19.72;101161.97;4874344;29;20077;-88
2023/06/25 10:41:48;;;;;;;3.38;3.20;;;;;;;42.23;19.91;101166.63;4850948;29;20080;-88
2023/06/25 10:44:16;;;;;;;3.40;3.20;;;;;;;42.04;19.62;101165.56;4858710;29;20105;-87
2023/06/25 10:46:45;;;;;;;3.53;3.22;;;;;;;41.59;19.90;101163.34;4868904;29;20048;-88
2023/06/25 10:49:20;;;;;;;3.50;3.30;;;;;;;42.20;19.95;101157.94;4871695;29;20084;-87
2023/06/25 10:51:46;;;;;;;3.58;3.10;;;;;;;42.92;19.35;101158.06;4860344;29;20077;-87
2023/06/25 10:54:14;;;;;;;3.42;3.15;;;;;;;43.19;19.25;101152.50;4870029;29;20145;-88
2023/06/25 10:56:40;;;;;;;2.85;2.70;;;;;;;43.41;19.19;101153.03;4866112;29;20055;-87
2023/06/25 10:59:07;;;;;;;3.50;3.40;;;;;;;44.12;17.90;101151.09;4847394;29;20044;-89
2023/06/25 11:01:35;;;;;;;3.92;3.72;;;;;;;43.87;18.54;101140.03;4866286;29;20059;-87
2023/06/25 11:04:02;;;;;;;2.83;2.72;;;;;;;44.37;18.36;101140.06;4861349;29;20053;-88
2023/06/25 11:06:29;;;;;;;3.03;2.92;;;;;;;44.11;18.12;101139.22;4868080;29;20049;-88
2023/06/25 11:08:56;;;;;;;2.53;2.42;;;;;;;44.08;18.59;101139.69;4851254;29;20079;-88
2023/06/25 11:11:22;;;;;;;3.20;3.00;;;;;;;43.66;19.08;101136.56;4853918;29;20050;-88
2023/06/25 11:13:51;;;;;;;3.40;3.22;;;;;;;44.12;18.88;101123.50;4849024;29;20060;-87
2023/06/25 11:16:23;;;;;;;3.75;3.55;;;;;;;44.09;18.56;101121.19;4874186;29;20052;-88
2023/06/25 11:18:51;;;;;;;3.08;2.97;;;;;;;44.84;18.29;101130.44;4852901;29;20073;-89
2023/06/25 11:21:18;;;;;;;3.25;3.13;;;;;;;44.36;18.71;101132.03;4866266;29;20509;-88
2023/06/25 11:23:44;;;;;;;3.78;3.58;;;;;;;43.52;18.94;101127.56;4851475;29;20058;-89